Terminal Aerodrome Forecast
Issued by NWS Charleston, WV

Home | Current Version | Previous Version | Text Only | Print | Product List | Glossary On
Versions: 1 2 3 4 5 6 7 8 9 10 11 12 13 14 15 16 17 18 19 20 21 22 23 24
000
FTUS41 KRLX 291458 AAA
TAFHTS
TAF AMD
KHTS 291458Z 2915/3012 25004KT P6SM FEW020 SCT250
     FM291600 25004KT P6SM SCT050
     FM300300 00000KT P6SM SCT060=

USA.gov is the U.S. government's official web portal to all federal, state and local government web resources and services.